createdAt,value
2023-08-17T00:00:36.741Z,4.8
2023-08-17T00:05:55.756Z,2.4
2023-08-17T00:11:50.685Z,2.4
2023-08-17T00:17:09.838Z,5.9
2023-08-17T00:22:54.791Z,4.8
2023-08-17T00:28:33.639Z,5.9
2023-08-17T00:39:45.428Z,0
2023-08-17T00:45:20.592Z,2.4
2023-08-17T00:50:49.351Z,0
2023-08-17T00:56:17.233Z,0
2023-08-17T01:02:09.155Z,0
2023-08-17T01:07:17.985Z,0
2023-08-17T01:12:59.521Z,0
2023-08-17T01:18:33.643Z,0
2023-08-17T01:29:56.234Z,0
2023-08-17T01:35:11.169Z,0
2023-08-17T01:40:55.403Z,0
2023-08-17T01:46:31.598Z,0
2023-08-17T01:52:09.252Z,0
2023-08-17T01:57:28.392Z,0
2023-08-17T02:03:39.552Z,2.4
2023-08-17T02:08:38.327Z,0
2023-08-17T02:14:31.990Z,0
2023-08-17T02:19:56.695Z,0
2023-08-17T02:25:27.550Z,0
2023-08-17T02:31:18.841Z,2.4
2023-08-17T02:36:39.091Z,2.4
2023-08-17T02:42:19.303Z,0
2023-08-17T02:47:56.962Z,0
2023-08-17T02:53:36.090Z,0
2023-08-17T02:58:59.185Z,0
2023-08-17T03:04:30.045Z,0
2023-08-17T03:10:14.320Z,2.4
2023-08-17T03:15:49.637Z,2.4
2023-08-17T03:21:29.240Z,2.4
2023-08-17T03:26:59.822Z,0
2023-08-17T03:32:32.579Z,0
2023-08-17T03:38:02.763Z,0
2023-08-17T03:43:37.209Z,0
2023-08-17T03:54:46.046Z,0
2023-08-17T04:00:18.504Z,0
2023-08-17T04:06:07.178Z,0
2023-08-17T04:11:29.985Z,0
2023-08-17T04:16:50.386Z,0
2023-08-17T04:22:26.793Z,0
2023-08-17T04:28:17.144Z,0
2023-08-17T04:39:04.838Z,0
2023-08-17T04:45:06.049Z,0
2023-08-17T04:50:12.828Z,0
2023-08-17T04:56:12.819Z,0
2023-08-17T05:01:45.937Z,0
2023-08-17T05:07:02.224Z,0
2023-08-17T05:12:44.321Z,0
2023-08-17T05:18:09.684Z,0
2023-08-17T05:23:53.149Z,0
2023-08-17T05:29:11.501Z,0
2023-08-17T05:34:49.753Z,0
2023-08-17T05:40:26.552Z,0
2023-08-17T05:46:12.925Z,0
2023-08-17T05:51:38.128Z,0
2023-08-17T05:57:24.620Z,0
2023-08-17T06:02:40.940Z,0
2023-08-17T06:08:26.620Z,0
2023-08-17T06:14:00.502Z,0
2023-08-17T06:19:50.164Z,0
2023-08-17T06:24:59.583Z,0
2023-08-17T06:30:45.823Z,0
2023-08-17T06:36:25.237Z,0
2023-08-17T06:42:07.429Z,0
2023-08-17T06:47:32.140Z,0
2023-08-17T06:52:58.710Z,0
2023-08-17T07:04:12.714Z,0
2023-08-17T07:09:53.193Z,2.4
2023-08-17T07:15:42.371Z,2.4
2023-08-17T07:21:19.510Z,4.8
2023-08-17T07:26:34.293Z,4.8
2023-08-17T07:32:17.828Z,3.6
2023-08-17T07:37:59.884Z,5.9
2023-08-17T07:43:29.548Z,3.6
2023-08-17T07:54:56.012Z,3.6
2023-08-17T08:00:26.023Z,7.2
2023-08-17T08:05:43.795Z,8.4
2023-08-17T08:11:22.970Z,7.2
2023-08-17T08:17:12.610Z,0
2023-08-17T08:22:52.026Z,3.6
2023-08-17T08:28:04.070Z,4.8
2023-08-17T08:39:31.317Z,0
2023-08-17T08:45:09.026Z,0
2023-08-17T08:50:39.374Z,3.6
2023-08-17T08:56:11.820Z,3.6
2023-08-17T09:01:39.091Z,3.6
2023-08-17T09:07:41.185Z,4.8
2023-08-17T09:13:12.017Z,0
2023-08-17T09:24:16.163Z,3.6
2023-08-17T09:30:01.569Z,0
2023-08-17T09:35:28.080Z,2.4
2023-08-17T09:40:58.092Z,3.6
2023-08-17T09:46:34.315Z,0
2023-08-17T09:52:21.490Z,3.6
2023-08-17T09:57:56.013Z,4.8
2023-08-17T10:04:04.679Z,2.4
2023-08-17T10:09:14.497Z,2.4
2023-08-17T10:14:42.691Z,3.6
2023-08-17T10:20:38.215Z,0
2023-08-17T10:26:06.422Z,3.6
2023-08-17T10:31:48.860Z,4.8
2023-08-17T10:37:21.611Z,7.2
2023-08-17T10:43:12.659Z,10.7
2023-08-17T10:59:43.152Z,8.4
2023-08-17T11:05:19.842Z,11.9
2023-08-17T11:10:57.616Z,14.4
2023-08-17T11:16:59.167Z,13.2
2023-08-17T11:22:26.438Z,10.7
2023-08-17T11:28:02.040Z,10.7
2023-08-17T11:33:45.818Z,9.6
2023-08-17T11:39:29.425Z,7.2
2023-08-17T11:44:46.224Z,5.9
2023-08-17T11:50:39.838Z,7.2
2023-08-17T11:56:15.415Z,4.8
2023-08-17T12:01:46.472Z,3.6
2023-08-17T12:07:36.618Z,3.6
2023-08-17T12:12:59.957Z,5.9
2023-08-17T12:18:41.960Z,5.9
2023-08-17T12:24:14.337Z,4.8
2023-08-17T12:29:54.076Z,3.6
2023-08-17T12:35:33.235Z,5.9
2023-08-17T12:41:29.630Z,7.2
2023-08-17T12:47:01.183Z,9.6
2023-08-17T12:52:33.051Z,9.6
2023-08-17T12:58:10.078Z,9.6
2023-08-17T13:04:07.213Z,4.8
2023-08-17T13:09:18.146Z,5.9
2023-08-17T13:14:59.112Z,8.4
2023-08-17T13:20:45.860Z,3.6
2023-08-17T13:26:14.380Z,4.8
2023-08-17T13:32:03.193Z,5.9
2023-08-17T13:37:39.606Z,5.9
2023-08-17T13:43:29.242Z,4.8
2023-08-17T13:54:26.228Z,3.6
2023-08-17T14:00:17.092Z,5.9
2023-08-17T14:06:05.435Z,3.6
2023-08-17T14:11:46.588Z,9.6
2023-08-17T14:17:04.589Z,10.7
2023-08-17T14:22:51.776Z,5.9
2023-08-17T14:28:28.441Z,7.2
2023-08-17T14:34:11.095Z,8.4
2023-08-17T14:40:10.263Z,5.9
2023-08-17T14:45:33.604Z,5.9
2023-08-17T14:51:21.338Z,8.4
2023-08-17T14:57:03.899Z,10.7
2023-08-17T15:02:52.931Z,7.2
2023-08-17T15:08:24.485Z,8.4
2023-08-17T15:13:54.616Z,5.9
2023-08-17T15:19:50.073Z,7.2
2023-08-17T15:25:15.315Z,7.2
2023-08-17T15:30:45.505Z,7.2
2023-08-17T15:36:33.171Z,9.6
2023-08-17T15:42:13.995Z,10.7
2023-08-17T15:47:45.229Z,11.9
2023-08-17T15:53:31.489Z,10.7
2023-08-17T15:58:47.963Z,7.2
2023-08-17T16:04:25.135Z,5.9
2023-08-17T16:10:22.836Z,8.4
2023-08-17T16:16:03.170Z,4.8
2023-08-17T16:21:28.204Z,3.6
2023-08-17T16:26:56.165Z,7.2
2023-08-17T16:32:47.131Z,4.8
2023-08-17T16:38:35.154Z,8.4
2023-08-17T16:43:54.261Z,9.6
2023-08-17T16:49:40.588Z,13.2
2023-08-17T16:55:23.581Z,13.2
2023-08-17T17:00:58.847Z,14.4
2023-08-17T17:06:49.348Z,11.9
2023-08-17T17:12:05.993Z,15.6
2023-08-17T17:17:43.853Z,13.2
2023-08-17T17:23:29.786Z,11.9
2023-08-17T17:34:50.378Z,11.9
2023-08-17T17:40:20.694Z,11.9
2023-08-17T17:46:18.489Z,10.7
2023-08-17T17:51:50.468Z,9.6
2023-08-17T17:57:33.716Z,5.9
2023-08-17T18:02:48.589Z,3.6
2023-08-17T18:13:57.656Z,4.8
2023-08-17T18:19:58.400Z,9.6
2023-08-17T18:25:34.052Z,9.6
2023-08-17T18:30:56.529Z,5.9
2023-08-17T18:36:29.985Z,7.2
2023-08-17T18:42:22.977Z,7.2
2023-08-17T18:47:37.299Z,8.4
2023-08-17T18:53:22.962Z,7.2
2023-08-17T18:59:01.580Z,8.4
2023-08-17T19:04:51.404Z,8.4
2023-08-17T19:10:16.530Z,8.4
2023-08-17T19:15:58.446Z,9.6
2023-08-17T19:21:19.238Z,11.9
2023-08-17T19:26:59.613Z,10.7
2023-08-17T19:32:43.768Z,7.2
2023-08-17T19:38:25.963Z,7.2
2023-08-17T19:49:25.459Z,3.6
2023-08-17T19:55:13.622Z,3.6
2023-08-17T20:00:45.186Z,3.6
2023-08-17T20:06:03.346Z,0
2023-08-17T20:11:40.996Z,2.4
2023-08-17T20:17:09.623Z,0
2023-08-17T20:23:01.709Z,0
2023-08-17T20:28:32.751Z,0
2023-08-17T20:39:40.986Z,0
2023-08-17T20:45:21.158Z,2.4
2023-08-17T20:50:54.201Z,2.4
2023-08-17T20:56:13.855Z,0
2023-08-17T21:01:55.463Z,0
2023-08-17T21:07:32.370Z,0
2023-08-17T21:13:18.060Z,0
2023-08-17T21:18:33.398Z,0
2023-08-17T21:24:08.581Z,0
2023-08-17T21:29:38.590Z,2.4
2023-08-17T21:35:29.365Z,4.8
2023-08-17T21:41:17.025Z,4.8
2023-08-17T21:46:51.848Z,3.6
2023-08-17T21:52:02.615Z,0
2023-08-17T21:57:48.726Z,7.2
2023-08-17T22:03:52.983Z,7.2
2023-08-17T22:09:03.937Z,4.8
2023-08-17T22:14:39.461Z,7.2
2023-08-17T22:20:09.687Z,3.6
2023-08-17T22:25:38.772Z,0
2023-08-17T22:31:08.598Z,0
2023-08-17T22:37:02.805Z,0
2023-08-17T22:42:20.429Z,0
2023-08-17T22:48:06.840Z,2.4
2023-08-17T23:04:51.874Z,0
2023-08-17T23:10:27.740Z,0
2023-08-17T23:16:09.518Z,0
2023-08-17T23:21:19.003Z,0
2023-08-17T23:27:16.445Z,0
2023-08-17T23:32:53.177Z,0
2023-08-17T23:38:08.174Z,0
2023-08-17T23:49:12.431Z,0
2023-08-17T23:55:07.339Z,0
